sensor_id;sensor_type;location;lat;lon;timestamp;pressure;altitude;pressure_sealevel;temperature;humidity
35952;BME280;22035;51.406;16.194;2023-04-28T00:00:10;100464.80;;;29.68;25.21
35952;BME280;22035;51.406;16.194;2023-04-28T00:02:35;100463.77;;;29.63;25.27
35952;BME280;22035;51.406;16.194;2023-04-28T00:05:01;100462.18;;;29.59;25.43
35952;BME280;22035;51.406;16.194;2023-04-28T00:07:27;100462.87;;;29.57;25.43
35952;BME280;22035;51.406;16.194;2023-04-28T00:09:52;100460.06;;;29.68;25.33
35952;BME280;22035;51.406;16.194;2023-04-28T00:12:18;100456.37;;;29.66;25.44
35952;BME280;22035;51.406;16.194;2023-04-28T00:14:44;100458.48;;;29.78;25.10
35952;BME280;22035;51.406;16.194;2023-04-28T00:17:09;100457.92;;;29.66;25.31
35952;BME280;22035;51.406;16.194;2023-04-28T00:19:35;100453.76;;;29.71;25.31
35952;BME280;22035;51.406;16.194;2023-04-28T00:22:00;100457.22;;;29.77;25.21
35952;BME280;22035;51.406;16.194;2023-04-28T00:24:26;100454.33;;;29.68;25.19
35952;BME280;22035;51.406;16.194;2023-04-28T00:26:51;100451.31;;;29.70;25.43
35952;BME280;22035;51.406;16.194;2023-04-28T00:29:17;100450.86;;;29.68;25.76
35952;BME280;22035;51.406;16.194;2023-04-28T00:31:43;100449.39;;;29.72;25.22
35952;BME280;22035;51.406;16.194;2023-04-28T00:34:09;100448.88;;;29.68;25.33
35952;BME280;22035;51.406;16.194;2023-04-28T00:36:34;100449.40;;;29.69;25.29
35952;BME280;22035;51.406;16.194;2023-04-28T00:39:00;100448.19;;;29.76;25.17
35952;BME280;22035;51.406;16.194;2023-04-28T00:41:26;100451.46;;;29.71;25.15
35952;BME280;22035;51.406;16.194;2023-04-28T00:43:51;100451.31;;;29.70;25.19
35952;BME280;22035;51.406;16.194;2023-04-28T00:46:20;100449.56;;;29.80;25.03
35952;BME280;22035;51.406;16.194;2023-04-28T00:48:47;100446.39;;;29.76;25.12
35952;BME280;22035;51.406;16.194;2023-04-28T00:51:13;100444.31;;;29.71;25.24
35952;BME280;22035;51.406;16.194;2023-04-28T00:53:39;100438.30;;;29.76;25.30
35952;BME280;22035;51.406;16.194;2023-04-28T00:56:05;100432.84;;;29.76;25.23
35952;BME280;22035;51.406;16.194;2023-04-28T00:58:33;100431.92;;;29.73;25.42
35952;BME280;22035;51.406;16.194;2023-04-28T01:01:02;100429.89;;;29.76;25.31
35952;BME280;22035;51.406;16.194;2023-04-28T01:03:28;100427.58;;;29.73;25.10
35952;BME280;22035;51.406;16.194;2023-04-28T01:05:54;100426.76;;;29.69;25.23
35952;BME280;22035;51.406;16.194;2023-04-28T01:08:22;100423.48;;;29.69;25.08
35952;BME280;22035;51.406;16.194;2023-04-28T01:10:48;100420.38;;;29.67;25.13
35952;BME280;22035;51.406;16.194;2023-04-28T01:13:13;100416.78;;;29.64;25.32
35952;BME280;22035;51.406;16.194;2023-04-28T01:15:39;100416.57;;;29.62;25.33
35952;BME280;22035;51.406;16.194;2023-04-28T01:18:05;100419.18;;;29.54;25.55
35952;BME280;22035;51.406;16.194;2023-04-28T01:20:30;100419.17;;;29.64;25.13
35952;BME280;22035;51.406;16.194;2023-04-28T01:22:56;100420.10;;;29.65;25.02
35952;BME280;22035;51.406;16.194;2023-04-28T01:25:22;100418.98;;;29.65;25.09
35952;BME280;22035;51.406;16.194;2023-04-28T01:27:47;100418.74;;;29.61;25.25
35952;BME280;22035;51.406;16.194;2023-04-28T01:30:13;100417.16;;;29.58;25.22
35952;BME280;22035;51.406;16.194;2023-04-28T01:32:38;100418.00;;;29.55;25.35
35952;BME280;22035;51.406;16.194;2023-04-28T01:35:04;100416.44;;;29.55;25.53
35952;BME280;22035;51.406;16.194;2023-04-28T01:37:30;100415.86;;;29.57;25.43
35952;BME280;22035;51.406;16.194;2023-04-28T01:39:56;100414.20;;;29.49;25.71
35952;BME280;22035;51.406;16.194;2023-04-28T01:42:21;100410.53;;;29.71;25.50
35952;BME280;22035;51.406;16.194;2023-04-28T01:44:47;100410.87;;;29.64;25.66
35952;BME280;22035;51.406;16.194;2023-04-28T01:47:12;100403.04;;;29.65;25.54
35952;BME280;22035;51.406;16.194;2023-04-28T01:49:38;100401.89;;;29.56;25.60
35952;BME280;22035;51.406;16.194;2023-04-28T01:52:04;100396.36;;;29.66;25.65
35952;BME280;22035;51.406;16.194;2023-04-28T01:54:29;100394.21;;;29.66;25.64
35952;BME280;22035;51.406;16.194;2023-04-28T01:56:55;100393.94;;;29.64;25.83
35952;BME280;22035;51.406;16.194;2023-04-28T01:59:20;100393.77;;;29.63;25.69
35952;BME280;22035;51.406;16.194;2023-04-28T02:01:46;100397.68;;;29.65;25.70
35952;BME280;22035;51.406;16.194;2023-04-28T02:04:12;100397.40;;;29.67;25.59
35952;BME280;22035;51.406;16.194;2023-04-28T02:06:37;100393.94;;;29.61;25.73
35952;BME280;22035;51.406;16.194;2023-04-28T02:09:03;100387.11;;;29.62;25.74
35952;BME280;22035;51.406;16.194;2023-04-28T02:11:28;100384.33;;;29.62;25.70
35952;BME280;22035;51.406;16.194;2023-04-28T02:13:54;100388.28;;;29.45;26.00
35952;BME280;22035;51.406;16.194;2023-04-28T02:16:19;100383.97;;;29.53;25.75
35952;BME280;22035;51.406;16.194;2023-04-28T02:18:45;100383.97;;;29.55;25.75
35952;BME280;22035;51.406;16.194;2023-04-28T02:21:11;100383.80;;;29.50;25.71
35952;BME280;22035;51.406;16.194;2023-04-28T02:23:37;100382.99;;;29.50;25.92
35952;BME280;22035;51.406;16.194;2023-04-28T02:26:03;100385.41;;;29.44;26.01
35952;BME280;22035;51.406;16.194;2023-04-28T02:28:29;100388.28;;;29.40;25.98
35952;BME280;22035;51.406;16.194;2023-04-28T02:31:02;100386.91;;;29.40;26.02
35952;BME280;22035;51.406;16.194;2023-04-28T02:33:28;100380.93;;;29.50;25.81
35952;BME280;22035;51.406;16.194;2023-04-28T02:35:57;100377.78;;;29.52;25.86
35952;BME280;22035;51.406;16.194;2023-04-28T02:38:23;100378.51;;;29.55;25.83
35952;BME280;22035;51.406;16.194;2023-04-28T02:40:56;100378.87;;;29.56;25.72
35952;BME280;22035;51.406;16.194;2023-04-28T02:43:22;100377.63;;;29.53;25.71
35952;BME280;22035;51.406;16.194;2023-04-28T02:45:47;100377.93;;;29.50;25.80
35952;BME280;22035;51.406;16.194;2023-04-28T02:48:13;100375.20;;;29.52;25.75
35952;BME280;22035;51.406;16.194;2023-04-28T02:50:38;100376.24;;;29.56;25.73
35952;BME280;22035;51.406;16.194;2023-04-28T02:53:04;100373.43;;;29.54;25.79
35952;BME280;22035;51.406;16.194;2023-04-28T02:55:30;100373.42;;;29.49;25.76
35952;BME280;22035;51.406;16.194;2023-04-28T02:57:55;100372.22;;;29.50;25.81
35952;BME280;22035;51.406;16.194;2023-04-28T03:00:21;100371.67;;;29.50;25.92
35952;BME280;22035;51.406;16.194;2023-04-28T03:02:46;100371.23;;;29.49;25.94
35952;BME280;22035;51.406;16.194;2023-04-28T03:05:12;100367.87;;;29.44;25.98
35952;BME280;22035;51.406;16.194;2023-04-28T03:07:38;100367.27;;;29.51;25.72
35952;BME280;22035;51.406;16.194;2023-04-28T03:10:04;100367.65;;;29.54;25.74
35952;BME280;22035;51.406;16.194;2023-04-28T03:12:30;100366.40;;;29.45;25.89
35952;BME280;22035;51.406;16.194;2023-04-28T03:14:55;100369.57;;;29.55;25.63
35952;BME280;22035;51.406;16.194;2023-04-28T03:17:21;100368.09;;;29.51;25.78
35952;BME280;22035;51.406;16.194;2023-04-28T03:19:47;100366.50;;;29.49;25.97
35952;BME280;22035;51.406;16.194;2023-04-28T03:22:12;100362.85;;;29.57;25.87
35952;BME280;22035;51.406;16.194;2023-04-28T03:24:38;100365.06;;;29.57;25.73
35952;BME280;22035;51.406;16.194;2023-04-28T03:27:03;100366.38;;;29.46;25.95
35952;BME280;22035;51.406;16.194;2023-04-28T03:29:29;100362.88;;;29.61;25.75
35952;BME280;22035;51.406;16.194;2023-04-28T03:31:54;100362.86;;;29.46;25.89
35952;BME280;22035;51.406;16.194;2023-04-28T03:34:20;100368.26;;;29.56;25.98
35952;BME280;22035;51.406;16.194;2023-04-28T03:36:46;100365.65;;;29.66;25.97
35952;BME280;22035;51.406;16.194;2023-04-28T03:39:11;100363.29;;;29.55;26.01
35952;BME280;22035;51.406;16.194;2023-04-28T03:41:37;100359.20;;;29.47;25.88
35952;BME280;22035;51.406;16.194;2023-04-28T03:44:02;100361.75;;;29.38;26.15
35952;BME280;22035;51.406;16.194;2023-04-28T03:46:28;100362.81;;;29.44;26.05
35952;BME280;22035;51.406;16.194;2023-04-28T03:48:53;100357.55;;;29.53;25.92
35952;BME280;22035;51.406;16.194;2023-04-28T03:51:19;100356.10;;;29.50;26.02
35952;BME280;22035;51.406;16.194;2023-04-28T03:53:45;100352.16;;;29.54;25.77
35952;BME280;22035;51.406;16.194;2023-04-28T03:56:10;100348.03;;;29.54;25.92
35952;BME280;22035;51.406;16.194;2023-04-28T03:58:36;100348.93;;;29.53;25.86
35952;BME280;22035;51.406;16.194;2023-04-28T04:01:01;100350.33;;;29.50;25.74
35952;BME280;22035;51.406;16.194;2023-04-28T04:03:27;100350.21;;;29.43;26.09
35952;BME280;22035;51.406;16.194;2023-04-28T04:05:53;100348.79;;;29.62;26.20
35952;BME280;22035;51.406;16.194;2023-04-28T04:08:18;100347.98;;;29.70;26.11
35952;BME280;22035;51.406;16.194;2023-04-28T04:10:44;100344.35;;;29.63;25.81
35952;BME280;22035;51.406;16.194;2023-04-28T04:13:10;100345.29;;;29.48;26.07
35952;BME280;22035;51.406;16.194;2023-04-28T04:15:35;100343.88;;;29.44;26.01
35952;BME280;22035;51.406;16.194;2023-04-28T04:18:01;100340.23;;;29.48;25.81
35952;BME280;22035;51.406;16.194;2023-04-28T04:20:27;100337.96;;;29.32;25.65
35952;BME280;22035;51.406;16.194;2023-04-28T04:22:53;100340.98;;;29.26;25.70
35952;BME280;22035;51.406;16.194;2023-04-28T04:25:18;100340.34;;;29.36;25.32
35952;BME280;22035;51.406;16.194;2023-04-28T04:27:44;100336.62;;;29.38;25.31
35952;BME280;22035;51.406;16.194;2023-04-28T04:30:10;100335.76;;;29.29;25.33
35952;BME280;22035;51.406;16.194;2023-04-28T04:32:35;100335.96;;;29.21;25.39
35952;BME280;22035;51.406;16.194;2023-04-28T04:35:01;100333.77;;;29.14;25.42
35952;BME280;22035;51.406;16.194;2023-04-28T04:37:27;100339.41;;;28.98;25.57
35952;BME280;22035;51.406;16.194;2023-04-28T04:39:52;100339.51;;;29.11;25.30
35952;BME280;22035;51.406;16.194;2023-04-28T04:42:18;100341.41;;;29.08;25.28
35952;BME280;22035;51.406;16.194;2023-04-28T04:44:44;100339.86;;;29.05;25.28
35952;BME280;22035;51.406;16.194;2023-04-28T04:47:09;100343.33;;;29.10;25.17
35952;BME280;22035;51.406;16.194;2023-04-28T04:49:35;100341.19;;;29.09;25.07
35952;BME280;22035;51.406;16.194;2023-04-28T04:52:00;100339.96;;;29.08;25.06
35952;BME280;22035;51.406;16.194;2023-04-28T04:54:26;100334.69;;;29.11;24.98
35952;BME280;22035;51.406;16.194;2023-04-28T04:56:51;100329.53;;;29.13;24.90
35952;BME280;22035;51.406;16.194;2023-04-28T04:59:17;100329.89;;;29.06;24.95
35952;BME280;22035;51.406;16.194;2023-04-28T05:01:42;100328.52;;;29.10;24.85
35952;BME280;22035;51.406;16.194;2023-04-28T05:04:08;100327.40;;;29.23;24.71
35952;BME280;22035;51.406;16.194;2023-04-28T05:06:34;100327.37;;;29.29;24.78
35952;BME280;22035;51.406;16.194;2023-04-28T05:08:59;100322.96;;;29.41;24.76
35952;BME280;22035;51.406;16.194;2023-04-28T05:11:25;100322.75;;;29.44;24.65
35952;BME280;22035;51.406;16.194;2023-04-28T05:13:50;100318.72;;;29.26;24.79
35952;BME280;22035;51.406;16.194;2023-04-28T05:16:16;100314.88;;;29.24;24.75
35952;BME280;22035;51.406;16.194;2023-04-28T05:18:41;100313.16;;;29.31;24.70
35952;BME280;22035;51.406;16.194;2023-04-28T05:21:07;100310.84;;;29.38;24.58
35952;BME280;22035;51.406;16.194;2023-04-28T05:23:33;100314.69;;;29.37;24.54
35952;BME280;22035;51.406;16.194;2023-04-28T05:25:58;100314.73;;;29.32;24.40
35952;BME280;22035;51.406;16.194;2023-04-28T05:28:24;100315.01;;;29.43;23.75
35952;BME280;22035;51.406;16.194;2023-04-28T05:30:50;100308.78;;;29.34;23.85
35952;BME280;22035;51.406;16.194;2023-04-28T05:33:15;100306.92;;;29.23;24.10
35952;BME280;22035;51.406;16.194;2023-04-28T05:35:41;100302.10;;;29.35;23.95
35952;BME280;22035;51.406;16.194;2023-04-28T05:38:06;100305.22;;;29.39;23.90
35952;BME280;22035;51.406;16.194;2023-04-28T05:40:32;100309.83;;;29.32;23.99
35952;BME280;22035;51.406;16.194;2023-04-28T05:42:58;100307.44;;;29.27;24.10
35952;BME280;22035;51.406;16.194;2023-04-28T05:45:24;100305.17;;;29.20;24.17
35952;BME280;22035;51.406;16.194;2023-04-28T05:47:49;100299.42;;;29.29;23.95
35952;BME280;22035;51.406;16.194;2023-04-28T05:50:15;100295.67;;;29.27;23.98
35952;BME280;22035;51.406;16.194;2023-04-28T05:52:41;100297.11;;;29.31;23.94
35952;BME280;22035;51.406;16.194;2023-04-28T05:55:07;100295.74;;;29.34;23.87
35952;BME280;22035;51.406;16.194;2023-04-28T05:57:33;100296.43;;;29.36;23.84
35952;BME280;22035;51.406;16.194;2023-04-28T05:59:59;100294.91;;;29.34;23.83
35952;BME280;22035;51.406;16.194;2023-04-28T06:02:24;100297.17;;;29.36;23.81
35952;BME280;22035;51.406;16.194;2023-04-28T06:04:50;100297.04;;;29.36;23.80
35952;BME280;22035;51.406;16.194;2023-04-28T06:07:16;100296.21;;;29.37;23.77
35952;BME280;22035;51.406;16.194;2023-04-28T06:09:41;100296.34;;;29.49;23.60
35952;BME280;22035;51.406;16.194;2023-04-28T06:12:07;100292.63;;;29.35;23.72
35952;BME280;22035;51.406;16.194;2023-04-28T06:14:32;100290.08;;;29.48;23.56
35952;BME280;22035;51.406;16.194;2023-04-28T06:16:58;100288.15;;;29.47;23.56
35952;BME280;22035;51.406;16.194;2023-04-28T06:19:24;100286.76;;;29.44;23.60
35952;BME280;22035;51.406;16.194;2023-04-28T06:21:50;100283.40;;;29.44;23.63
35952;BME280;22035;51.406;16.194;2023-04-28T06:24:15;100285.63;;;29.42;23.59
35952;BME280;22035;51.406;16.194;2023-04-28T06:26:41;100284.82;;;29.42;23.60
35952;BME280;22035;51.406;16.194;2023-04-28T06:29:07;100285.41;;;29.54;23.46
35952;BME280;22035;51.406;16.194;2023-04-28T06:31:32;100289.38;;;29.45;23.54
35952;BME280;22035;51.406;16.194;2023-04-28T06:33:58;100284.34;;;29.45;23.54
35952;BME280;22035;51.406;16.194;2023-04-28T06:36:23;100281.15;;;29.41;23.53
35952;BME280;22035;51.406;16.194;2023-04-28T06:38:50;100282.77;;;29.54;23.42
35952;BME280;22035;51.406;16.194;2023-04-28T06:41:15;100283.33;;;29.44;23.48
35952;BME280;22035;51.406;16.194;2023-04-28T06:43:41;100281.18;;;29.46;23.46
35952;BME280;22035;51.406;16.194;2023-04-28T06:46:06;100279.05;;;29.47;23.45
35952;BME280;22035;51.406;16.194;2023-04-28T06:48:32;100277.35;;;29.48;23.41
35952;BME280;22035;51.406;16.194;2023-04-28T06:50:58;100272.93;;;29.53;23.35
35952;BME280;22035;51.406;16.194;2023-04-28T06:53:23;100269.43;;;29.35;23.55
35952;BME280;22035;51.406;16.194;2023-04-28T06:55:49;100270.68;;;29.54;23.32
35952;BME280;22035;51.406;16.194;2023-04-28T06:58:15;100270.16;;;29.45;23.45
35952;BME280;22035;51.406;16.194;2023-04-28T07:00:40;100266.35;;;29.42;23.48
35952;BME280;22035;51.406;16.194;2023-04-28T07:03:06;100262.03;;;29.52;23.37
35952;BME280;22035;51.406;16.194;2023-04-28T07:05:32;100259.02;;;29.51;23.37
35952;BME280;22035;51.406;16.194;2023-04-28T07:07:57;100258.65;;;29.53;23.36
35952;BME280;22035;51.406;16.194;2023-04-28T07:10:23;100259.23;;;29.63;23.28
35952;BME280;22035;51.406;16.194;2023-04-28T07:12:49;100255.59;;;29.68;23.21
35952;BME280;22035;51.406;16.194;2023-04-28T07:15:14;100254.02;;;29.68;23.06
35952;BME280;22035;51.406;16.194;2023-04-28T07:17:40;100253.19;;;29.70;23.19
35952;BME280;22035;51.406;16.194;2023-04-28T07:20:07;100251.11;;;29.70;23.22
35952;BME280;22035;51.406;16.194;2023-04-28T07:22:33;100246.75;;;29.68;23.19
35952;BME280;22035;51.406;16.194;2023-04-28T07:24:58;100244.70;;;29.71;23.14
35952;BME280;22035;51.406;16.194;2023-04-28T07:27:24;100238.90;;;29.77;23.10
35952;BME280;22035;51.406;16.194;2023-04-28T07:29:49;100234.21;;;29.80;23.03
35952;BME280;22035;51.406;16.194;2023-04-28T07:32:15;100229.36;;;29.83;23.00
35952;BME280;22035;51.406;16.194;2023-04-28T07:34:41;100228.67;;;29.77;23.04
35952;BME280;22035;51.406;16.194;2023-04-28T07:37:06;100228.20;;;29.81;23.03
35952;BME280;22035;51.406;16.194;2023-04-28T07:39:33;100225.26;;;29.68;23.14
35952;BME280;22035;51.406;16.194;2023-04-28T07:41:59;100224.12;;;29.83;22.97
35952;BME280;22035;51.406;16.194;2023-04-28T07:44:24;100221.58;;;29.83;23.04
35952;BME280;22035;51.406;16.194;2023-04-28T07:46:50;100217.69;;;29.85;22.97
35952;BME280;22035;51.406;16.194;2023-04-28T07:49:16;100217.24;;;29.82;22.99
35952;BME280;22035;51.406;16.194;2023-04-28T07:51:41;100212.97;;;29.75;23.04
35952;BME280;22035;51.406;16.194;2023-04-28T07:54:07;100211.56;;;29.79;23.02
35952;BME280;22035;51.406;16.194;2023-04-28T07:56:33;100210.42;;;29.69;23.10
35952;BME280;22035;51.406;16.194;2023-04-28T07:58:58;100213.76;;;29.75;23.07
35952;BME280;22035;51.406;16.194;2023-04-28T08:01:24;100209.39;;;29.80;22.96
35952;BME280;22035;51.406;16.194;2023-04-28T08:03:49;100206.93;;;29.73;23.02
35952;BME280;22035;51.406;16.194;2023-04-28T08:06:15;100207.97;;;29.77;22.99
35952;BME280;22035;51.406;16.194;2023-04-28T08:08:41;100204.68;;;29.88;22.88
35952;BME280;22035;51.406;16.194;2023-04-28T08:11:07;100204.75;;;29.78;22.99
35952;BME280;22035;51.406;16.194;2023-04-28T08:13:33;100202.59;;;29.73;23.02
35952;BME280;22035;51.406;16.194;2023-04-28T08:15:58;100194.37;;;29.86;22.87
35952;BME280;22035;51.406;16.194;2023-04-28T08:18:24;100196.87;;;29.84;22.89
35952;BME280;22035;51.406;16.194;2023-04-28T08:20:50;100194.28;;;29.78;22.96
35952;BME280;22035;51.406;16.194;2023-04-28T08:23:15;100191.34;;;29.74;22.98
35952;BME280;22035;51.406;16.194;2023-04-28T08:25:41;100191.77;;;29.79;22.92
35952;BME280;22035;51.406;16.194;2023-04-28T08:28:07;100189.18;;;29.85;22.82
35952;BME280;22035;51.406;16.194;2023-04-28T08:30:32;100182.60;;;29.82;22.82
35952;BME280;22035;51.406;16.194;2023-04-28T08:32:58;100179.84;;;29.77;22.91
35952;BME280;22035;51.406;16.194;2023-04-28T08:35:23;100181.06;;;29.75;22.96
35952;BME280;22035;51.406;16.194;2023-04-28T08:37:50;100184.08;;;29.70;22.99
35952;BME280;22035;51.406;16.194;2023-04-28T08:40:16;100180.35;;;29.61;23.08
35952;BME280;22035;51.406;16.194;2023-04-28T08:42:43;100176.38;;;29.71;22.95
35952;BME280;22035;51.406;16.194;2023-04-28T08:45:12;100176.49;;;29.66;23.00
35952;BME280;22035;51.406;16.194;2023-04-28T08:47:39;100172.11;;;29.64;23.04
35952;BME280;22035;51.406;16.194;2023-04-28T08:50:06;100171.77;;;29.66;22.99
35952;BME280;22035;51.406;16.194;2023-04-28T08:52:33;100166.19;;;29.56;23.11
35952;BME280;22035;51.406;16.194;2023-04-28T08:55:00;100169.69;;;29.71;22.91
35952;BME280;22035;51.406;16.194;2023-04-28T08:57:26;100171.63;;;29.76;22.84
35952;BME280;22035;51.406;16.194;2023-04-28T08:59:52;100164.74;;;29.72;22.88
35952;BME280;22035;51.406;16.194;2023-04-28T09:02:19;100161.98;;;29.66;22.94
35952;BME280;22035;51.406;16.194;2023-04-28T09:04:45;100160.01;;;29.74;22.83
35952;BME280;22035;51.406;16.194;2023-04-28T09:07:11;100156.08;;;29.70;22.88
35952;BME280;22035;51.406;16.194;2023-04-28T09:09:37;100151.67;;;29.61;23.01
35952;BME280;22035;51.406;16.194;2023-04-28T09:12:03;100146.51;;;29.68;22.90
35952;BME280;22035;51.406;16.194;2023-04-28T09:14:31;100148.11;;;29.63;22.96
35952;BME280;22035;51.406;16.194;2023-04-28T09:16:57;100143.80;;;29.64;22.94
35952;BME280;22035;51.406;16.194;2023-04-28T09:19:23;100144.96;;;29.66;22.90
35952;BME280;22035;51.406;16.194;2023-04-28T09:21:51;100141.22;;;29.63;22.98
35952;BME280;22035;51.406;16.194;2023-04-28T09:24:33;100135.98;;;29.64;22.93
35952;BME280;22035;51.406;16.194;2023-04-28T09:27:00;100129.33;;;29.67;22.89
35952;BME280;22035;51.406;16.194;2023-04-28T09:29:27;100128.75;;;29.65;22.90
35952;BME280;22035;51.406;16.194;2023-04-28T09:31:53;100127.08;;;29.53;23.02
35952;BME280;22035;51.406;16.194;2023-04-28T09:34:18;100119.64;;;29.48;23.06
35952;BME280;22035;51.406;16.194;2023-04-28T09:36:44;100118.24;;;29.59;22.95
35952;BME280;22035;51.406;16.194;2023-04-28T09:39:10;100115.11;;;29.55;23.01
35952;BME280;22035;51.406;16.194;2023-04-28T09:41:36;100112.43;;;29.66;22.89
35952;BME280;22035;51.406;16.194;2023-04-28T09:44:10;100108.33;;;29.59;22.94
35952;BME280;22035;51.406;16.194;2023-04-28T09:46:36;100104.30;;;29.68;22.85
35952;BME280;22035;51.406;16.194;2023-04-28T09:49:01;100102.53;;;29.59;22.94
35952;BME280;22035;51.406;16.194;2023-04-28T09:51:27;100096.61;;;29.69;22.82
35952;BME280;22035;51.406;16.194;2023-04-28T09:53:53;100092.14;;;29.70;22.81
35952;BME280;22035;51.406;16.194;2023-04-28T09:56:21;100086.96;;;29.63;22.87
35952;BME280;22035;51.406;16.194;2023-04-28T09:58:49;100086.21;;;29.67;22.81
35952;BME280;22035;51.406;16.194;2023-04-28T10:01:16;100078.85;;;29.61;22.86
35952;BME280;22035;51.406;16.194;2023-04-28T10:03:43;100071.73;;;29.62;22.88
35952;BME280;22035;51.406;16.194;2023-04-28T10:06:09;100071.15;;;29.44;23.06
35952;BME280;22035;51.406;16.194;2023-04-28T10:08:34;100067.63;;;29.60;22.89
35952;BME280;22035;51.406;16.194;2023-04-28T10:11:00;100068.03;;;29.63;22.85
35952;BME280;22035;51.406;16.194;2023-04-28T10:13:26;100060.69;;;29.64;22.85
35952;BME280;22035;51.406;16.194;2023-04-28T10:15:52;100060.64;;;29.55;22.92
35952;BME280;22035;51.406;16.194;2023-04-28T10:18:18;100060.39;;;29.60;22.90
35952;BME280;22035;51.406;16.194;2023-04-28T10:20:45;100056.35;;;29.59;22.89
35952;BME280;22035;51.406;16.194;2023-04-28T10:23:30;100055.66;;;29.69;22.77
35952;BME280;22035;51.406;16.194;2023-04-28T10:26:02;100047.69;;;29.58;22.81
35952;BME280;22035;51.406;16.194;2023-04-28T10:28:28;100041.11;;;29.57;22.91
35952;BME280;22035;51.406;16.194;2023-04-28T10:31:10;100045.76;;;29.59;22.90
35952;BME280;22035;51.406;16.194;2023-04-28T10:33:36;100042.18;;;29.63;22.85
35952;BME280;22035;51.406;16.194;2023-04-28T10:36:02;100040.21;;;29.55;22.93
35952;BME280;22035;51.406;16.194;2023-04-28T10:38:28;100037.73;;;29.65;22.81
35952;BME280;22035;51.406;16.194;2023-04-28T10:40:54;100030.66;;;29.57;22.89
35952;BME280;22035;51.406;16.194;2023-04-28T10:43:36;100026.46;;;29.59;22.83
35952;BME280;22035;51.406;16.194;2023-04-28T10:46:04;100018.38;;;29.65;22.79
35952;BME280;22035;51.406;16.194;2023-04-28T10:49:02;100015.30;;;29.69;22.75
35952;BME280;22035;51.406;16.194;2023-04-28T10:51:28;100008.46;;;29.70;22.73
35952;BME280;22035;51.406;16.194;2023-04-28T10:54:13;100004.49;;;29.63;22.94
35952;BME280;22035;51.406;16.194;2023-04-28T10:56:41;100006.02;;;29.67;22.89
35952;BME280;22035;51.406;16.194;2023-04-28T10:59:38;100008.46;;;29.61;22.85
35952;BME280;22035;51.406;16.194;2023-04-28T11:02:37;100000.61;;;29.67;22.89
35952;BME280;22035;51.406;16.194;2023-04-28T11:05:12;99995.66;;;29.82;22.70
35952;BME280;22035;51.406;16.194;2023-04-28T11:07:37;99992.24;;;29.76;22.74
35952;BME280;22035;51.406;16.194;2023-04-28T11:10:04;99993.42;;;29.89;22.62
35952;BME280;22035;51.406;16.194;2023-04-28T11:12:30;99988.56;;;29.89;22.78
35952;BME280;22035;51.406;16.194;2023-04-28T11:14:55;99985.46;;;29.92;22.66
35952;BME280;22035;51.406;16.194;2023-04-28T11:17:38;99987.82;;;30.01;22.80
35952;BME280;22035;51.406;16.194;2023-04-28T11:20:06;99985.10;;;30.03;22.96
35952;BME280;22035;51.406;16.194;2023-04-28T11:22:37;99982.18;;;29.95;23.15
35952;BME280;22035;51.406;16.194;2023-04-28T11:25:03;99982.94;;;29.97;23.12
35952;BME280;22035;51.406;16.194;2023-04-28T11:27:30;99975.54;;;29.91;23.18
35952;BME280;22035;51.406;16.194;2023-04-28T11:29:56;99981.34;;;29.94;23.41
35952;BME280;22035;51.406;16.194;2023-04-28T11:32:25;99979.89;;;29.90;23.33
35952;BME280;22035;51.406;16.194;2023-04-28T11:34:51;99976.06;;;29.89;23.66
35952;BME280;22035;51.406;16.194;2023-04-28T11:37:17;99975.66;;;29.92;23.53
35952;BME280;22035;51.406;16.194;2023-04-28T11:39:42;99977.31;;;29.89;23.74
35952;BME280;22035;51.406;16.194;2023-04-28T11:42:09;99973.42;;;29.88;23.53
35952;BME280;22035;51.406;16.194;2023-04-28T11:44:35;99969.29;;;29.90;23.50
35952;BME280;22035;51.406;16.194;2023-04-28T11:47:02;99961.02;;;29.90;23.54
35952;BME280;22035;51.406;16.194;2023-04-28T11:49:29;99966.07;;;29.97;23.50
35952;BME280;22035;51.406;16.194;2023-04-28T11:51:55;99964.84;;;29.96;23.52
35952;BME280;22035;51.406;16.194;2023-04-28T11:54:23;99957.62;;;29.99;23.42
35952;BME280;22035;51.406;16.194;2023-04-28T11:56:49;99954.31;;;29.96;23.44
35952;BME280;22035;51.406;16.194;2023-04-28T11:59:15;99949.87;;;29.90;23.59
35952;BME280;22035;51.406;16.194;2023-04-28T12:01:47;99947.08;;;29.91;23.54
35952;BME280;22035;51.406;16.194;2023-04-28T12:04:24;99953.92;;;29.97;23.49
35952;BME280;22035;51.406;16.194;2023-04-28T12:06:58;99951.75;;;29.93;23.56
35952;BME280;22035;51.406;16.194;2023-04-28T12:09:23;99949.56;;;29.88;23.67
35952;BME280;22035;51.406;16.194;2023-04-28T12:11:53;99944.04;;;29.97;24.21
35952;BME280;22035;51.406;16.194;2023-04-28T12:14:19;99942.55;;;29.96;24.14
35952;BME280;22035;51.406;16.194;2023-04-28T12:16:45;99930.84;;;29.93;24.05
35952;BME280;22035;51.406;16.194;2023-04-28T12:19:11;99943.63;;;29.97;23.81
35952;BME280;22035;51.406;16.194;2023-04-28T12:21:37;99938.10;;;29.92;23.98
35952;BME280;22035;51.406;16.194;2023-04-28T12:24:19;99934.54;;;29.94;23.86
35952;BME280;22035;51.406;16.194;2023-04-28T12:26:46;99932.06;;;29.93;23.92
35952;BME280;22035;51.406;16.194;2023-04-28T12:29:44;99926.97;;;29.96;23.97
35952;BME280;22035;51.406;16.194;2023-04-28T12:32:10;99925.10;;;30.01;24.44
35952;BME280;22035;51.406;16.194;2023-04-28T12:34:37;99924.58;;;30.00;24.49
35952;BME280;22035;51.406;16.194;2023-04-28T12:37:03;99925.14;;;30.00;24.09